createdAt,value
2022-08-26T00:00:32.512Z,94.62
2022-08-26T00:01:32.259Z,94.12
2022-08-26T00:02:32.307Z,94.06
2022-08-26T00:03:32.229Z,94.16
2022-08-26T00:04:32.235Z,94.31
2022-08-26T00:05:32.220Z,94.36
2022-08-26T00:06:32.216Z,94.06
2022-08-26T00:07:32.201Z,94.26
2022-08-26T00:08:32.212Z,93.86
2022-08-26T00:09:32.163Z,94.16
2022-08-26T00:10:32.153Z,94.56
2022-08-26T00:11:32.943Z,94.56
2022-08-26T00:12:37.498Z,95.06
2022-08-26T00:13:33.113Z,94.86
2022-08-26T00:14:32.085Z,94.36
2022-08-26T00:15:32.081Z,95.06
2022-08-26T00:16:32.137Z,95.76
2022-08-26T00:17:32.097Z,95.86
2022-08-26T00:18:38.700Z,96.06
2022-08-26T00:19:33.028Z,96.36
2022-08-26T00:20:32.954Z,96.67
2022-08-26T00:21:32.014Z,96.56
2022-08-26T00:22:31.987Z,96.56
2022-08-26T00:23:31.969Z,95.86
2022-08-26T00:24:31.957Z,95.16
2022-08-26T00:25:31.948Z,94.86
2022-08-26T00:26:31.929Z,94.86
2022-08-26T00:27:31.919Z,94.56
2022-08-26T00:28:31.895Z,94.16
2022-08-26T00:29:31.983Z,95.56
2022-08-26T00:30:31.893Z,95.36
2022-08-26T00:31:31.905Z,94.96
2022-08-26T00:32:31.852Z,95.36
2022-08-26T00:33:31.835Z,95.86
2022-08-26T00:34:31.821Z,95.66
2022-08-26T00:35:31.853Z,95.26
2022-08-26T00:36:31.804Z,94.86
2022-08-26T00:37:31.796Z,94.86
2022-08-26T00:38:31.772Z,94.66
2022-08-26T00:39:31.753Z,94.76
2022-08-26T00:40:31.837Z,95.06
2022-08-26T00:41:31.734Z,95.26
2022-08-26T00:42:31.724Z,95.16
2022-08-26T00:43:31.714Z,95.01
2022-08-26T00:44:32.687Z,95.10
2022-08-26T00:45:31.731Z,95.21
2022-08-26T00:46:31.688Z,95.51
2022-08-26T00:47:31.669Z,95.31
2022-08-26T00:48:31.814Z,95.31
2022-08-26T00:49:31.627Z,95.61
2022-08-26T00:50:31.610Z,95.91
2022-08-26T00:51:31.603Z,95.41
2022-08-26T00:52:31.589Z,95.41
2022-08-26T00:53:31.569Z,96.51
2022-08-26T00:54:31.599Z,96.91
2022-08-26T00:55:34.665Z,96.91
2022-08-26T00:56:32.540Z,97.02
2022-08-26T00:57:31.533Z,96.71
2022-08-26T00:58:31.500Z,96.41
2022-08-26T00:59:32.710Z,96.41
2022-08-26T01:00:31.481Z,96.41
2022-08-26T01:01:31.568Z,96.31
2022-08-26T01:02:31.494Z,95.91
2022-08-26T01:03:31.441Z,95.61
2022-08-26T01:04:31.448Z,95.81
2022-08-26T01:05:31.412Z,95.81
2022-08-26T01:06:31.421Z,95.91
2022-08-26T01:07:31.470Z,95.71
2022-08-26T01:08:31.369Z,95.10
2022-08-26T01:09:32.314Z,95.21
2022-08-26T01:10:31.379Z,95.01
2022-08-26T01:11:31.337Z,95.01
2022-08-26T01:12:31.309Z,94.81
2022-08-26T01:13:31.580Z,94.60
2022-08-26T01:14:31.296Z,94.90
2022-08-26T01:15:32.816Z,95.21
2022-08-26T01:16:31.348Z,95.10
2022-08-26T01:17:31.285Z,95.10
2022-08-26T01:18:31.298Z,95.81
2022-08-26T01:19:31.229Z,95.81
2022-08-26T01:20:31.223Z,96.31
2022-08-26T01:21:31.209Z,96.31
2022-08-26T01:22:31.190Z,96.31
2022-08-26T01:23:31.171Z,96.01
2022-08-26T01:24:31.185Z,96.11
2022-08-26T01:25:32.102Z,96.31
2022-08-26T01:26:31.151Z,96.11
2022-08-26T01:27:32.396Z,96.11
2022-08-26T01:28:31.102Z,96.01
2022-08-26T01:29:31.106Z,95.91
2022-08-26T01:30:31.077Z,95.91
2022-08-26T01:31:31.117Z,95.81
2022-08-26T01:32:31.048Z,95.51
2022-08-26T01:33:31.042Z,96.31
2022-08-26T01:34:32.025Z,95.81
2022-08-26T01:35:31.015Z,95.71
2022-08-26T01:36:31.001Z,96.01
2022-08-26T01:37:30.994Z,95.71
2022-08-26T01:38:30.984Z,96.11
2022-08-26T01:39:30.965Z,95.61
2022-08-26T01:40:31.009Z,95.81
2022-08-26T01:41:30.936Z,95.71
2022-08-26T01:42:30.916Z,96.71
2022-08-26T01:43:30.896Z,96.21
2022-08-26T01:44:31.837Z,97.21
2022-08-26T01:45:30.935Z,96.51
2022-08-26T01:46:30.865Z,95.95
2022-08-26T01:47:30.851Z,96.01
2022-08-26T01:48:30.830Z,96.06
2022-08-26T01:49:31.926Z,96.06
2022-08-26T01:50:30.808Z,96.26
2022-08-26T01:51:31.590Z,95.65
2022-08-26T01:52:30.777Z,94.65
2022-08-26T01:53:30.829Z,95.36
2022-08-26T01:54:30.750Z,95.36
2022-08-26T01:55:32.989Z,95.55
2022-08-26T01:56:33.408Z,95.55
2022-08-26T01:57:31.713Z,95.55
2022-08-26T01:58:30.711Z,95.55
2022-08-26T01:59:30.699Z,96.06
2022-08-26T02:00:30.688Z,96.56
2022-08-26T02:01:30.673Z,96.06
2022-08-26T02:02:30.643Z,95.55
2022-08-26T02:03:30.657Z,95.55
2022-08-26T02:04:31.047Z,96.26
2022-08-26T02:05:30.625Z,96.45
2022-08-26T02:06:30.595Z,97.26
2022-08-26T02:07:30.575Z,97.46
2022-08-26T02:08:30.583Z,97.91
2022-08-26T02:09:30.814Z,97.41
2022-08-26T02:10:30.554Z,97.11
2022-08-26T02:11:30.538Z,97.11
2022-08-26T02:12:30.526Z,97.11
2022-08-26T02:13:30.522Z,96.91
2022-08-26T02:14:30.514Z,96.80
2022-08-26T02:15:30.479Z,96.41
2022-08-26T02:16:30.494Z,95.50
2022-08-26T02:17:30.461Z,95.50
2022-08-26T02:18:30.444Z,95.60
2022-08-26T02:19:30.430Z,96.30
2022-08-26T02:20:30.458Z,96.70
2022-08-26T02:21:30.400Z,97.31
2022-08-26T02:22:30.393Z,98.01
2022-08-26T02:23:30.372Z,97.61
2022-08-26T02:24:30.362Z,97.31
2022-08-26T02:25:30.353Z,97.41
2022-08-26T02:26:30.358Z,96.70
2022-08-26T02:27:32.307Z,96.70
2022-08-26T02:28:30.323Z,96.60
2022-08-26T02:29:30.294Z,96.70
2022-08-26T02:30:30.302Z,97.00
2022-08-26T02:31:30.311Z,96.91
2022-08-26T02:32:30.249Z,96.30
2022-08-26T02:33:30.250Z,96.55
2022-08-26T02:34:31.205Z,96.15
2022-08-26T02:35:31.175Z,96.35
2022-08-26T02:36:31.138Z,96.80
2022-08-26T02:37:30.196Z,97.50
2022-08-26T02:38:30.169Z,97.91
2022-08-26T02:39:30.157Z,97.81
2022-08-26T02:40:31.144Z,97.20
2022-08-26T02:41:30.128Z,97.31
2022-08-26T02:42:30.120Z,98.01
2022-08-26T02:43:32.705Z,98.51
2022-08-26T02:44:30.089Z,98.51
2022-08-26T02:45:30.117Z,97.61
2022-08-26T02:46:30.329Z,96.65
2022-08-26T02:47:30.051Z,96.55
2022-08-26T02:48:30.992Z,96.65
2022-08-26T02:49:30.048Z,96.65
2022-08-26T02:50:30.011Z,96.45
2022-08-26T02:51:30.012Z,96.85
2022-08-26T02:52:29.981Z,97.25
2022-08-26T02:53:31.681Z,97.45
2022-08-26T02:54:29.971Z,97.66
2022-08-26T02:55:30.224Z,97.45
2022-08-26T02:56:29.932Z,96.95
2022-08-26T02:57:30.873Z,96.65
2022-08-26T02:58:29.900Z,96.55
2022-08-26T02:59:30.863Z,95.95
2022-08-26T03:00:29.934Z,96.35
2022-08-26T03:01:29.963Z,96.35
2022-08-26T03:02:29.852Z,95.95
2022-08-26T03:03:29.846Z,95.75
2022-08-26T03:04:30.814Z,96.25
2022-08-26T03:05:29.826Z,96.04
2022-08-26T03:06:29.790Z,96.15
2022-08-26T03:07:29.788Z,95.95
2022-08-26T03:08:29.768Z,96.25
2022-08-26T03:09:29.768Z,96.25
2022-08-26T03:10:29.738Z,96.35
2022-08-26T03:11:33.143Z,96.04
2022-08-26T03:12:30.664Z,96.04
2022-08-26T03:13:30.663Z,96.04
2022-08-26T03:14:29.698Z,95.64
2022-08-26T03:15:29.683Z,96.75
2022-08-26T03:16:32.306Z,97.66
2022-08-26T03:17:29.891Z,97.85
2022-08-26T03:18:29.631Z,97.85
2022-08-26T03:19:30.594Z,97.55
2022-08-26T03:20:29.622Z,97.15
2022-08-26T03:21:29.607Z,97.20
2022-08-26T03:22:29.598Z,97.20
2022-08-26T03:23:30.528Z,97.09
2022-08-26T03:24:29.575Z,97.40
2022-08-26T03:25:29.569Z,97.09
2022-08-26T03:26:29.562Z,97.90
2022-08-26T03:27:29.522Z,98.50
2022-08-26T03:28:29.505Z,98.60
2022-08-26T03:29:30.707Z,98.50
2022-08-26T03:30:29.476Z,98.10
2022-08-26T03:31:29.599Z,97.80
2022-08-26T03:32:29.445Z,97.80
2022-08-26T03:33:29.437Z,97.80
2022-08-26T03:34:29.438Z,97.30
2022-08-26T03:35:29.410Z,97.50
2022-08-26T03:36:29.389Z,97.50
2022-08-26T03:37:29.378Z,97.40
2022-08-26T03:38:29.378Z,97.20
2022-08-26T03:39:31.413Z,97.20
2022-08-26T03:40:29.381Z,96.89
2022-08-26T03:41:29.332Z,96.80
2022-08-26T03:42:29.321Z,96.89
2022-08-26T03:43:29.303Z,97.14
2022-08-26T03:44:29.325Z,96.89
2022-08-26T03:45:29.290Z,96.44
2022-08-26T03:46:29.328Z,96.44
2022-08-26T03:47:29.252Z,97.09
2022-08-26T03:48:29.232Z,97.55
2022-08-26T03:49:29.249Z,97.34
2022-08-26T03:50:29.207Z,97.44
2022-08-26T03:51:29.201Z,97.95
2022-08-26T03:52:29.183Z,98.25
2022-08-26T03:53:29.174Z,98.15
2022-08-26T03:54:29.174Z,97.85
2022-08-26T03:55:29.144Z,97.75
2022-08-26T03:56:29.125Z,97.85
2022-08-26T03:57:29.116Z,97.75
2022-08-26T03:58:29.101Z,97.14
2022-08-26T03:59:29.103Z,97.14
2022-08-26T04:00:29.084Z,97.44
2022-08-26T04:01:29.167Z,97.55
2022-08-26T04:02:29.085Z,97.64
2022-08-26T04:03:29.089Z,98.25
2022-08-26T04:04:29.038Z,98.35
2022-08-26T04:05:29.009Z,98.05
2022-08-26T04:06:28.990Z,97.95
2022-08-26T04:07:28.989Z,98.05
2022-08-26T04:08:28.969Z,97.95
2022-08-26T04:09:28.981Z,98.05
2022-08-26T04:10:29.595Z,97.85
2022-08-26T04:11:28.943Z,97.24
2022-08-26T04:12:28.944Z,97.64
2022-08-26T04:13:28.917Z,97.95
2022-08-26T04:14:28.900Z,97.85
2022-08-26T04:15:29.833Z,97.75
2022-08-26T04:16:28.922Z,97.64
2022-08-26T04:17:28.852Z,97.34
2022-08-26T04:18:33.018Z,97.95
2022-08-26T04:19:29.834Z,97.95
2022-08-26T04:20:28.813Z,98.05
2022-08-26T04:21:28.795Z,98.25
2022-08-26T04:22:29.386Z,97.64
2022-08-26T04:23:28.795Z,96.94
2022-08-26T04:24:28.763Z,97.14
2022-08-26T04:25:28.745Z,97.24
2022-08-26T04:26:28.725Z,97.14
2022-08-26T04:27:28.726Z,97.55
2022-08-26T04:28:28.696Z,97.75
2022-08-26T04:29:28.697Z,97.34
2022-08-26T04:30:28.681Z,96.84
2022-08-26T04:31:28.712Z,96.64
2022-08-26T04:32:28.650Z,96.59
2022-08-26T04:33:32.320Z,97.40
2022-08-26T04:34:28.965Z,97.90
2022-08-26T04:35:28.609Z,98.20
2022-08-26T04:36:28.599Z,98.50
2022-08-26T04:37:28.580Z,98.00
2022-08-26T04:38:28.583Z,97.50
2022-08-26T04:39:28.550Z,97.30
2022-08-26T04:40:28.585Z,97.00
2022-08-26T04:41:28.631Z,96.09
2022-08-26T04:42:28.522Z,95.89
2022-08-26T04:43:28.527Z,95.59
2022-08-26T04:44:28.501Z,95.18
2022-08-26T04:45:28.474Z,96.09
2022-08-26T04:46:28.500Z,96.15
2022-08-26T04:47:32.240Z,95.44
2022-08-26T04:48:28.564Z,95.64
2022-08-26T04:49:28.414Z,96.04
2022-08-26T04:50:29.435Z,95.95
2022-08-26T04:51:28.392Z,95.34
2022-08-26T04:52:28.385Z,94.84
2022-08-26T04:53:28.376Z,95.34
2022-08-26T04:54:28.367Z,94.94
2022-08-26T04:55:38.302Z,94.84
2022-08-26T04:56:29.338Z,94.70
2022-08-26T04:57:28.321Z,96.10
2022-08-26T04:58:28.319Z,95.80
2022-08-26T04:59:28.298Z,96.80
2022-08-26T05:00:28.285Z,97.00
2022-08-26T05:01:28.325Z,96.80
2022-08-26T05:02:28.280Z,95.90
2022-08-26T05:03:30.543Z,96.30
2022-08-26T05:04:28.255Z,96.30
2022-08-26T05:05:28.210Z,95.50
2022-08-26T05:06:28.201Z,95.25
2022-08-26T05:07:28.181Z,94.95
2022-08-26T05:08:28.181Z,95.15
2022-08-26T05:09:28.152Z,94.75
2022-08-26T05:10:28.153Z,95.15
2022-08-26T05:11:28.129Z,96.06
2022-08-26T05:12:28.122Z,96.41
2022-08-26T05:13:28.123Z,97.02
2022-08-26T05:14:28.105Z,97.02
2022-08-26T05:15:28.074Z,97.52
2022-08-26T05:16:28.099Z,97.72
2022-08-26T05:17:28.056Z,97.21
2022-08-26T05:18:28.056Z,96.71
2022-08-26T05:19:28.072Z,96.21
2022-08-26T05:20:28.023Z,96.11
2022-08-26T05:21:27.996Z,96.01
2022-08-26T05:22:27.986Z,96.31
2022-08-26T05:23:27.976Z,96.31
2022-08-26T05:24:28.047Z,96.56
2022-08-26T05:25:27.947Z,96.77
2022-08-26T05:26:27.937Z,96.36
2022-08-26T05:27:27.916Z,94.96
2022-08-26T05:28:27.919Z,94.56
2022-08-26T05:29:27.890Z,94.26
2022-08-26T05:30:27.887Z,94.46
2022-08-26T05:31:27.914Z,93.05
2022-08-26T05:32:27.856Z,94.12
2022-08-26T05:33:27.849Z,94.62
2022-08-26T05:34:30.346Z,95.12
2022-08-26T05:35:27.812Z,95.72
2022-08-26T05:36:27.807Z,94.67
2022-08-26T05:37:27.782Z,95.27
2022-08-26T05:38:30.160Z,95.47
2022-08-26T05:39:27.762Z,95.87
2022-08-26T05:40:27.819Z,95.93
2022-08-26T05:41:27.730Z,96.13
2022-08-26T05:42:28.722Z,96.23
2022-08-26T05:43:27.733Z,95.53
2022-08-26T05:44:27.704Z,95.73
2022-08-26T05:45:27.675Z,95.73
2022-08-26T05:46:27.711Z,95.68
2022-08-26T05:47:28.692Z,95.68
2022-08-26T05:48:27.657Z,95.68
2022-08-26T05:49:27.626Z,95.78
2022-08-26T05:50:27.627Z,95.68
2022-08-26T05:51:27.656Z,95.78
2022-08-26T05:52:27.607Z,95.78
2022-08-26T05:53:27.578Z,95.88
2022-08-26T05:54:27.568Z,95.54
2022-08-26T05:55:27.548Z,95.23
2022-08-26T05:56:27.724Z,95.23
2022-08-26T05:57:27.514Z,95.34
2022-08-26T05:58:27.522Z,95.23
2022-08-26T05:59:27.512Z,95.34
2022-08-26T06:00:27.547Z,95.04
2022-08-26T06:01:27.556Z,94.89
2022-08-26T06:02:27.484Z,94.69
2022-08-26T06:03:27.448Z,94.49
2022-08-26T06:04:29.597Z,93.99
2022-08-26T06:05:27.412Z,94.09
2022-08-26T06:06:28.534Z,94.29
2022-08-26T06:07:27.394Z,94.19
2022-08-26T06:08:27.383Z,94.09
2022-08-26T06:09:27.361Z,94.09
2022-08-26T06:10:34.431Z,93.95
2022-08-26T06:11:28.332Z,93.85
2022-08-26T06:12:27.356Z,93.74
2022-08-26T06:13:27.322Z,93.65
2022-08-26T06:14:27.297Z,93.65
2022-08-26T06:15:27.307Z,93.24
2022-08-26T06:16:27.296Z,92.75
2022-08-26T06:17:27.256Z,92.94
2022-08-26T06:18:27.248Z,93.05
2022-08-26T06:19:32.723Z,93.05
2022-08-26T06:20:28.239Z,92.80
2022-08-26T06:21:27.198Z,92.70
2022-08-26T06:22:27.203Z,92.50
2022-08-26T06:23:27.180Z,92.70
2022-08-26T06:24:27.519Z,92.80
2022-08-26T06:25:27.151Z,92.70
2022-08-26T06:26:27.140Z,92.60
2022-08-26T06:27:30.654Z,92.90
2022-08-26T06:28:28.141Z,92.56
2022-08-26T06:29:27.092Z,91.76
2022-08-26T06:30:27.082Z,91.06
2022-08-26T06:31:27.114Z,91.16
2022-08-26T06:32:28.154Z,90.96
2022-08-26T06:33:27.048Z,91.46
2022-08-26T06:34:30.579Z,91.36
2022-08-26T06:35:27.973Z,90.72
2022-08-26T06:36:27.005Z,90.62
2022-08-26T06:37:26.999Z,90.81
2022-08-26T06:38:27.016Z,90.52
2022-08-26T06:39:26.996Z,90.72
2022-08-26T06:40:27.100Z,90.28
2022-08-26T06:41:26.926Z,90.97
2022-08-26T06:42:26.937Z,90.77
2022-08-26T06:43:26.938Z,90.58
2022-08-26T06:44:26.962Z,90.47
2022-08-26T06:45:26.874Z,90.47
2022-08-26T06:46:26.916Z,90.08
2022-08-26T06:47:26.903Z,90.47
2022-08-26T06:48:26.852Z,90.37
2022-08-26T06:49:27.782Z,90.17
2022-08-26T06:50:26.830Z,89.48
2022-08-26T06:51:26.840Z,89.48
2022-08-26T06:52:26.790Z,89.38
2022-08-26T06:53:26.781Z,89.18
2022-08-26T06:54:26.823Z,89.03
2022-08-26T06:55:26.969Z,89.23
2022-08-26T06:56:27.702Z,88.84
2022-08-26T06:57:26.732Z,89.14
2022-08-26T06:58:26.733Z,88.43
2022-08-26T06:59:26.713Z,88.68
2022-08-26T07:00:26.704Z,89.78
2022-08-26T07:01:26.716Z,89.58
2022-08-26T07:02:28.614Z,89.73
2022-08-26T07:03:26.652Z,88.84
2022-08-26T07:04:27.906Z,89.03
2022-08-26T07:05:26.616Z,89.39
2022-08-26T07:06:26.606Z,89.69
2022-08-26T07:07:26.631Z,89.59
2022-08-26T07:08:26.745Z,89.49
2022-08-26T07:09:26.587Z,87.50
2022-08-26T07:10:26.558Z,86.36
2022-08-26T07:11:26.536Z,87.16
2022-08-26T07:12:26.525Z,86.56
2022-08-26T07:13:30.751Z,86.36
2022-08-26T07:14:26.523Z,87.12
2022-08-26T07:15:31.104Z,88.31
2022-08-26T07:16:27.522Z,88.21
2022-08-26T07:17:26.490Z,86.22
2022-08-26T07:18:26.462Z,85.28
2022-08-26T07:19:29.882Z,85.38
2022-08-26T07:20:26.423Z,85.68
2022-08-26T07:21:26.403Z,86.38
2022-08-26T07:22:26.414Z,86.28
2022-08-26T07:23:26.413Z,86.28
2022-08-26T07:24:29.059Z,86.18
2022-08-26T07:25:26.605Z,85.48
2022-08-26T07:26:26.345Z,85.88
2022-08-26T07:27:26.349Z,86.38
2022-08-26T07:28:26.347Z,86.54
2022-08-26T07:29:26.295Z,86.33
2022-08-26T07:30:26.287Z,86.63
2022-08-26T07:31:26.331Z,86.33
2022-08-26T07:32:26.266Z,86.24
2022-08-26T07:33:26.254Z,86.40
2022-08-26T07:34:26.300Z,84.31
2022-08-26T07:35:26.231Z,84.80
2022-08-26T07:36:26.209Z,85.20
2022-08-26T07:37:26.202Z,85.30
2022-08-26T07:38:26.201Z,85.00
2022-08-26T07:39:26.161Z,85.10
2022-08-26T07:40:26.276Z,84.11
2022-08-26T07:41:26.177Z,84.86
2022-08-26T07:42:26.131Z,83.57
2022-08-26T07:43:26.123Z,83.57
2022-08-26T07:44:26.102Z,83.37
2022-08-26T07:45:26.082Z,84.56
2022-08-26T07:46:27.553Z,83.81
2022-08-26T07:47:26.413Z,84.11
2022-08-26T07:48:26.072Z,84.11
2022-08-26T07:49:26.098Z,84.56
2022-08-26T07:50:49.520Z,84.27
2022-08-26T07:51:27.067Z,84.36
2022-08-26T07:52:27.227Z,82.78
2022-08-26T07:53:25.996Z,82.64
2022-08-26T07:54:27.107Z,83.77
2022-08-26T07:55:25.959Z,83.07
2022-08-26T07:56:26.903Z,83.47
2022-08-26T07:57:25.929Z,84.36
2022-08-26T07:58:25.955Z,84.86
2022-08-26T07:59:25.900Z,83.93
2022-08-26T08:00:25.899Z,83.53
2022-08-26T08:01:25.931Z,83.53
2022-08-26T08:02:25.861Z,83.63
2022-08-26T08:03:25.860Z,84.12
2022-08-26T08:04:26.705Z,83.09
2022-08-26T08:05:27.278Z,82.89
2022-08-26T08:06:27.171Z,81.80
2022-08-26T08:07:44.425Z,81.21
2022-08-26T08:08:29.209Z,82.00
2022-08-26T08:09:25.785Z,80.71
2022-08-26T08:10:25.783Z,80.41
2022-08-26T08:11:25.781Z,80.41
2022-08-26T08:12:25.755Z,80.02
2022-08-26T08:13:25.723Z,79.91
2022-08-26T08:14:25.725Z,80.41
2022-08-26T08:15:25.726Z,80.57
2022-08-26T08:16:26.039Z,80.47
2022-08-26T08:17:25.672Z,80.73
2022-08-26T08:18:25.674Z,79.74
2022-08-26T08:19:28.376Z,79.94
2022-08-26T08:20:26.638Z,80.33
2022-08-26T08:21:25.607Z,79.05
2022-08-26T08:22:25.598Z,79.05
2022-08-26T08:23:25.625Z,79.05
2022-08-26T08:24:25.579Z,78.91
2022-08-26T08:25:25.575Z,78.91
2022-08-26T08:26:25.552Z,78.31
2022-08-26T08:27:25.529Z,78.22
2022-08-26T08:28:25.540Z,78.81
2022-08-26T08:29:25.511Z,78.61
2022-08-26T08:30:25.491Z,78.08
2022-08-26T08:31:54.548Z,77.88
2022-08-26T08:32:26.502Z,78.08
2022-08-26T08:33:25.452Z,76.85
2022-08-26T08:34:25.737Z,77.05
2022-08-26T08:35:25.448Z,77.94
2022-08-26T08:36:25.419Z,77.68
2022-08-26T08:37:26.434Z,77.94
2022-08-26T08:38:25.394Z,77.84
2022-08-26T08:39:25.375Z,76.65
2022-08-26T08:40:25.389Z,77.84
2022-08-26T08:41:25.370Z,77.41
2022-08-26T08:42:25.358Z,77.01
2022-08-26T08:43:25.316Z,75.33
2022-08-26T08:45:25.297Z,75.23
2022-08-26T08:46:25.306Z,74.84
2022-08-26T08:47:25.279Z,75.23
2022-08-26T08:48:27.686Z,75.63
2022-08-26T08:49:25.547Z,75.63
2022-08-26T08:50:25.230Z,74.84
2022-08-26T08:51:25.220Z,74.74
2022-08-26T08:52:25.210Z,74.93
2022-08-26T08:53:25.202Z,76.03
2022-08-26T08:54:25.192Z,75.63
2022-08-26T08:55:25.172Z,76.03
2022-08-26T08:56:25.173Z,75.63
2022-08-26T08:57:25.162Z,75.23
2022-08-26T08:58:25.153Z,75.82
2022-08-26T08:59:25.114Z,75.20
2022-08-26T09:00:30.466Z,75.59
2022-08-26T09:01:26.125Z,74.70
2022-08-26T09:02:25.131Z,74.99
2022-08-26T09:03:25.106Z,75.99
2022-08-26T09:04:25.053Z,75.29
2022-08-26T09:05:25.178Z,74.90
2022-08-26T09:06:25.966Z,75.10
2022-08-26T09:07:25.024Z,74.76
2022-08-26T09:08:27.517Z,76.05
2022-08-26T09:09:24.988Z,75.16
2022-08-26T09:10:24.990Z,75.56
2022-08-26T09:11:24.968Z,74.76
2022-08-26T09:12:29.416Z,77.73
2022-08-26T09:13:27.203Z,72.49
2022-08-26T09:14:24.930Z,73.34
2022-08-26T09:15:26.387Z,71.99
2022-08-26T09:16:24.960Z,72.59
2022-08-26T09:17:24.891Z,73.08
2022-08-26T09:18:24.871Z,74.37
2022-08-26T09:19:24.856Z,74.27
2022-08-26T09:20:24.864Z,74.46
2022-08-26T09:21:25.139Z,73.94
2022-08-26T09:22:24.834Z,74.04
2022-08-26T09:23:25.191Z,72.61
2022-08-26T09:24:28.840Z,71.23
2022-08-26T09:25:24.784Z,71.43
2022-08-26T09:26:27.162Z,73.21
2022-08-26T09:27:24.747Z,72.81
2022-08-26T09:28:24.734Z,72.97
2022-08-26T09:29:24.743Z,71.30
2022-08-26T09:30:24.715Z,71.03
2022-08-26T09:31:24.774Z,71.62
2022-08-26T09:32:24.816Z,72.32
2022-08-26T09:33:24.679Z,73.11
2022-08-26T09:34:24.655Z,73.86
2022-08-26T09:35:24.649Z,73.86
2022-08-26T09:36:24.750Z,71.89
2022-08-26T09:37:24.634Z,72.15
2022-08-26T09:38:24.603Z,70.28
2022-08-26T09:39:24.594Z,72.02
2022-08-26T09:40:24.646Z,70.83
2022-08-26T09:41:24.562Z,71.59
2022-08-26T09:42:24.572Z,70.80
2022-08-26T09:43:24.556Z,70.67
2022-08-26T09:44:25.514Z,69.98
2022-08-26T09:45:25.465Z,68.89
2022-08-26T09:46:24.555Z,68.53
2022-08-26T09:47:24.516Z,68.10
2022-08-26T09:48:24.511Z,68.10
2022-08-26T09:49:24.456Z,68.60
2022-08-26T09:50:28.995Z,69.62
2022-08-26T09:51:24.447Z,69.68
2022-08-26T09:52:24.691Z,68.79
2022-08-26T09:53:28.739Z,67.51
2022-08-26T09:54:25.386Z,68.30
2022-08-26T09:55:25.379Z,69.48
2022-08-26T09:56:24.360Z,65.80
2022-08-26T09:57:24.360Z,67.08
2022-08-26T09:58:24.329Z,65.97
2022-08-26T09:59:24.320Z,67.25
2022-08-26T10:00:24.301Z,68.43
2022-08-26T10:01:24.356Z,67.02
2022-08-26T10:02:24.292Z,66.56
2022-08-26T10:03:25.223Z,68.13
2022-08-26T10:04:24.351Z,66.17
2022-08-26T10:05:24.244Z,68.04
2022-08-26T10:06:24.233Z,67.44
2022-08-26T10:07:24.234Z,66.17
2022-08-26T10:08:24.204Z,67.25
2022-08-26T10:09:24.196Z,65.22
2022-08-26T10:10:24.185Z,66.99
2022-08-26T10:11:24.166Z,67.91
2022-08-26T10:12:24.175Z,67.22
2022-08-26T10:13:24.147Z,68.01
2022-08-26T10:14:24.149Z,68.46
2022-08-26T10:15:25.068Z,67.25
2022-08-26T10:16:24.130Z,64.36
2022-08-26T10:17:24.109Z,63.15
2022-08-26T10:18:24.070Z,62.76
2022-08-26T10:19:24.093Z,62.66
2022-08-26T10:20:25.082Z,62.73
2022-08-26T10:21:24.052Z,64.69
2022-08-26T10:22:24.036Z,61.71
2022-08-26T10:23:24.012Z,62.40
2022-08-26T10:24:24.027Z,62.30
2022-08-26T10:25:24.002Z,62.43
2022-08-26T10:26:23.967Z,62.27
2022-08-26T10:27:23.974Z,62.76
2022-08-26T10:28:23.944Z,63.84
2022-08-26T10:29:23.965Z,64.33
2022-08-26T10:30:23.939Z,64.92
2022-08-26T10:31:27.534Z,63.18
2022-08-26T10:32:23.991Z,63.90
2022-08-26T10:33:23.877Z,64.69
2022-08-26T10:34:23.856Z,64.26
2022-08-26T10:35:23.897Z,64.49
2022-08-26T10:36:23.847Z,65.25
2022-08-26T10:37:23.870Z,64.33
2022-08-26T10:38:23.850Z,62.93
2022-08-26T10:39:24.759Z,61.94
2022-08-26T10:40:23.829Z,62.70
2022-08-26T10:41:23.772Z,60.31
2022-08-26T10:42:23.761Z,59.52
2022-08-26T10:43:23.756Z,61.07
2022-08-26T10:44:23.740Z,59.95
2022-08-26T10:45:23.726Z,59.17
2022-08-26T10:46:23.778Z,59.37
2022-08-26T10:47:23.694Z,59.73
2022-08-26T10:48:23.684Z,58.85
2022-08-26T10:49:23.709Z,57.48
2022-08-26T10:50:23.654Z,58.26
2022-08-26T10:51:23.664Z,61.89
2022-08-26T10:52:23.626Z,58.33
2022-08-26T10:53:25.104Z,57.62
2022-08-26T10:54:23.686Z,55.58
2022-08-26T10:55:23.597Z,55.29
2022-08-26T10:56:23.588Z,55.95
2022-08-26T10:57:23.579Z,55.56
2022-08-26T10:58:26.638Z,56.83
2022-08-26T10:59:24.497Z,55.76
2022-08-26T11:00:23.528Z,56.34
2022-08-26T11:01:24.585Z,58.40
2022-08-26T11:02:25.197Z,57.12
2022-08-26T11:03:23.501Z,56.90
2022-08-26T11:04:23.534Z,58.27
2022-08-26T11:05:23.487Z,57.26
2022-08-26T11:06:23.471Z,55.77
2022-08-26T11:07:23.443Z,52.83
2022-08-26T11:08:23.433Z,53.12
2022-08-26T11:09:25.784Z,53.74
2022-08-26T11:10:24.415Z,54.94
2022-08-26T11:11:23.385Z,58.37
2022-08-26T11:12:23.366Z,59.16
2022-08-26T11:13:23.362Z,60.42
2022-08-26T11:14:26.668Z,58.27
2022-08-26T11:15:24.976Z,59.64
2022-08-26T11:16:23.353Z,59.48
2022-08-26T11:17:23.338Z,56.07
2022-08-26T11:18:23.318Z,57.87
2022-08-26T11:19:24.576Z,58.97
2022-08-26T11:20:23.809Z,60.74
2022-08-26T11:21:23.280Z,62.63
2022-08-26T11:22:24.240Z,62.57
2022-08-26T11:23:23.243Z,62.79
2022-08-26T11:24:23.220Z,62.30
2022-08-26T11:25:27.743Z,63.42
2022-08-26T11:26:37.588Z,64.11
2022-08-26T11:27:24.423Z,65.12
2022-08-26T11:28:23.164Z,65.64
2022-08-26T11:29:23.154Z,67.68
2022-08-26T11:30:24.097Z,69.55
2022-08-26T11:31:23.208Z,70.67
2022-08-26T11:32:23.115Z,72.38
2022-08-26T11:33:23.115Z,73.80
2022-08-26T11:34:23.116Z,73.21
2022-08-26T11:35:23.074Z,73.44
2022-08-26T11:36:23.065Z,70.87
2022-08-26T11:37:23.061Z,71.60
2022-08-26T11:38:23.037Z,71.30
2022-08-26T11:39:23.044Z,69.46
2022-08-26T11:40:25.013Z,70.34
2022-08-26T11:41:23.010Z,69.26
2022-08-26T11:42:22.980Z,69.49
2022-08-26T11:43:22.981Z,70.97
2022-08-26T11:44:22.982Z,71.60
2022-08-26T11:45:23.874Z,75.54
2022-08-26T11:46:22.931Z,81.90
2022-08-26T11:47:22.943Z,81.64
2022-08-26T11:48:22.912Z,85.53
2022-08-26T11:49:22.906Z,88.67
2022-08-26T11:50:22.883Z,92.80
2022-08-26T11:51:22.876Z,94.15
2022-08-26T11:52:22.922Z,94.74
2022-08-26T11:53:22.921Z,95.75
2022-08-26T11:54:35.287Z,96.14
2022-08-26T11:55:24.240Z,96.04
2022-08-26T11:56:22.807Z,96.29
2022-08-26T11:57:22.836Z,96.59
2022-08-26T11:58:23.017Z,96.89
2022-08-26T11:59:22.813Z,97.69
2022-08-26T12:00:23.642Z,97.99
2022-08-26T12:01:22.739Z,98.35
2022-08-26T12:02:22.732Z,97.94
2022-08-26T12:03:23.022Z,98.44
2022-08-26T12:04:22.825Z,98.04
2022-08-26T12:05:22.682Z,98.54
2022-08-26T12:06:23.647Z,97.44
2022-08-26T12:07:24.190Z,97.74
2022-08-26T12:08:22.641Z,97.94
2022-08-26T12:09:22.656Z,97.85
2022-08-26T12:10:22.608Z,97.44
2022-08-26T12:11:22.603Z,97.74
2022-08-26T12:12:22.593Z,97.85
2022-08-26T12:13:22.824Z,97.05
2022-08-26T12:14:22.586Z,97.34
2022-08-26T12:15:22.557Z,98.10
2022-08-26T12:16:23.518Z,98.69
2022-08-26T12:17:22.694Z,98.99
2022-08-26T12:18:29.195Z,99.05
2022-08-26T12:19:23.523Z,98.95
2022-08-26T12:20:22.487Z,98.70
2022-08-26T12:21:22.493Z,98.20
2022-08-26T12:22:22.464Z,97.60
2022-08-26T12:23:22.459Z,97.60
2022-08-26T12:24:22.439Z,97.60
2022-08-26T12:25:22.427Z,97.50
2022-08-26T12:26:22.409Z,97.20
2022-08-26T12:27:22.389Z,97.20
2022-08-26T12:28:23.212Z,96.76
2022-08-26T12:29:27.237Z,96.36
2022-08-26T12:30:23.371Z,95.86
2022-08-26T12:31:22.388Z,95.26
2022-08-26T12:32:22.331Z,95.76
2022-08-26T12:33:23.310Z,96.16
2022-08-26T12:34:22.302Z,96.71
2022-08-26T12:35:22.284Z,96.41
2022-08-26T12:36:22.273Z,96.41
2022-08-26T12:37:22.265Z,94.92
2022-08-26T12:38:22.254Z,94.87
2022-08-26T12:39:22.242Z,94.67
2022-08-26T12:40:22.248Z,95.07
2022-08-26T12:41:22.226Z,95.57
2022-08-26T12:42:22.193Z,95.77
2022-08-26T12:43:22.196Z,95.47
2022-08-26T12:44:22.166Z,95.23
2022-08-26T12:45:22.197Z,95.53
2022-08-26T12:46:22.139Z,95.62
2022-08-26T12:47:22.148Z,95.72
2022-08-26T12:48:24.581Z,94.98
2022-08-26T12:49:22.108Z,94.88
2022-08-26T12:50:22.110Z,93.59
2022-08-26T12:51:22.100Z,92.69
2022-08-26T12:52:22.060Z,92.45
2022-08-26T12:53:23.011Z,93.34